Kriti Ruby — SVAT5 — position and weather

sailwx.info

Track history (hours):
 
Tides and Currents Weather Stations Pressure Air Temp Water Temp Dewpoint Dewpoint Depression Visibility Wind Speed Wind Dir Waves Ship Positions

Kriti Ruby

Last reported at 2016-Aug-26 23:08 UTC. Time now 2016-Sep-26 17:25 UTC.
Position N 38°16' E 121°27'.
Warning: this ship's position is 30 days out of date.

Length 183 m; draft 8.7 m.

Type: Ship (hazmat cat C). MMSI: 240941000.

Date/timePositionNaut miles runAvg speedWind from/ knotsBaromVisibWave heightAir tempDewpointWater temp
2016-Aug-26 23:08N 38°16' E 121°27'711.4
2016-Aug-26 22:33N 38°20' E 121°20'1212.2
2016-Aug-26 21:33N 38°27' E 121°07'1212.3
2016-Aug-26 20:33N 38°34' E 120°54'1312.6
2016-Aug-26 19:33N 38°36' E 120°39'1313.2
2016-Aug-26 18:33N 38°37' E 120°22'1413.8
2016-Aug-26 17:31N 38°39' E 120°03'9912.3
2016-Aug-26 09:27N 38°52' E 117°58'1011.2
2016-Aug-26 08:33N 38°57' E 117°46'1 0.3
2016-Aug-26 04:23N 38°57' E 117°45'0 0.0
2016-Aug-26 01:05N 38°57' E 117°45'0 0.0
2016-Aug-26 00:17N 38°57' E 117°45'0 0.0
2016-Aug-25 22:29N 38°57' E 117°45'0 0.0
2016-Aug-25 21:29N 38°57' E 117°45'0 0.0
2016-Aug-25 20:29N 38°57' E 117°45'0 0.0
2016-Aug-25 19:23N 38°57' E 117°45'0 0.0
2016-Aug-25 18:29N 38°57' E 117°45'0 0.0
2016-Aug-25 17:29N 38°57' E 117°45'0 0.0
2016-Aug-25 16:23N 38°57' E 117°45'0 0.0
2016-Aug-25 15:29N 38°57' E 117°45'0 0.0
2016-Aug-25 14:23N 38°57' E 117°45'0 0.0
2016-Aug-25 13:29N 38°57' E 117°45'0 0.0
2016-Aug-25 12:29N 38°57' E 117°45'0 0.0
2016-Aug-25 11:29N 38°57' E 117°45'0 0.0
2016-Aug-25 10:29N 38°57' E 117°45'0 0.0
2016-Aug-25 09:29N 38°57' E 117°45'0 0.0
2016-Aug-25 08:29N 38°57' E 117°45'0 0.0
2016-Aug-25 07:29N 38°57' E 117°45'0 0.0
2016-Aug-25 06:29N 38°57' E 117°45'0 0.0
2016-Aug-25 04:29N 38°57' E 117°45'0 0.0
2016-Aug-25 03:23N 38°57' E 117°45'0 0.1
2016-Aug-25 02:29N 38°57' E 117°45'0 0.0
2016-Aug-25 01:29N 38°57' E 117°45'0 0.0
2016-Aug-25 00:29N 38°57' E 117°45'0 0.0
2016-Aug-24 23:23N 38°57' E 117°45'0 0.1
2016-Aug-24 22:29N 38°57' E 117°45'0 0.0
2016-Aug-24 21:23N 38°57' E 117°45'0 0.0
2016-Aug-24 20:29N 38°57' E 117°45'0 0.0
2016-Aug-24 19:29N 38°57' E 117°45'0 0.0
2016-Aug-24 18:29N 38°57' E 117°45'0 0.0
2016-Aug-24 17:29N 38°57' E 117°45'0 0.0
2016-Aug-24 16:29N 38°57' E 117°45'0 0.0
2016-Aug-24 15:29N 38°57' E 117°45'0 0.0
2016-Aug-24 14:29N 38°57' E 117°45'0 0.0
2016-Aug-24 13:29N 38°57' E 117°45'0 0.0
2016-Aug-24 12:29N 38°57' E 117°45'0 0.0
2016-Aug-24 11:29N 38°57' E 117°45'0 0.0
2016-Aug-24 10:29N 38°57' E 117°45'0 0.0
2016-Aug-24 09:29N 38°57' E 117°45'0 0.0
2016-Aug-24 08:29N 38°57' E 117°45'0 0.2
2016-Aug-24 07:33N 38°57' E 117°45'8 8.3
2016-Aug-24 06:33N 38°54' E 117°55'58 3.0
2016-Aug-23 11:33N 38°48' E 119°08'1413.8
2016-Aug-23 10:32N 38°47' E 119°26'1414.3
2016-Aug-23 09:33N 38°44' E 119°44'1514.7
2016-Aug-23 08:33N 38°42' E 120°03'1715.0
2016-Aug-23 07:27N 38°40' E 120°24'1314.9
2016-Aug-23 06:33N 38°38' E 120°41'1414.2
2016-Aug-23 05:33N 38°35' E 120°58'1414.3
2016-Aug-23 04:33N 38°25' E 121°12'1413.6
2016-Aug-23 03:33N 38°12' E 121°13'1413.7
2016-Aug-23 02:33N 37°58' E 121°11'1211.9
2016-Aug-23 01:33N 37°46' E 121°09'5 0.1
2016-Aug-21 02:28N 37°43' E 121°04'4 4.1
2016-Aug-21 01:34N 37°44' E 121°08'6 1.1
2016-Aug-20 20:25N 37°50' E 121°08'0 0.0
2016-Aug-20 16:22N 37°50' E 121°08'0 0.1
2016-Aug-20 15:25N 37°50' E 121°08'0 0.0
2016-Aug-20 11:25N 37°50' E 121°08'3 3.7
2016-Aug-20 10:33N 37°53' E 121°10'9 8.6
2016-Aug-20 09:33N 37°55' E 121°21'1312.6
2016-Aug-20 08:34N 37°54' E 121°36'1413.4
2016-Aug-20 07:33N 37°52' E 121°54'  
Track history (hours):
 
Tides and Currents Weather Stations Pressure Air Temp Water Temp Dewpoint Dewpoint Depression Visibility Wind Speed Wind Dir Waves Ship Positions

Kriti Ruby

Last reported at 2016-Aug-26 23:08 UTC. Time now 2016-Sep-26 17:25 UTC.
Position N 38°16' E 121°27'.
Warning: this ship's position is 30 days out of date.

Length 183 m; draft 8.7 m.

Type: Ship (hazmat cat C). MMSI: 240941000.

Date/timePositionNaut miles runAvg speedWind from/ knotsBaromVisibWave heightAir tempDewpointWater temp
2016-Aug-26 23:08N 38°16' E 121°27'711.4
2016-Aug-26 22:33N 38°20' E 121°20'1212.2
2016-Aug-26 21:33N 38°27' E 121°07'1212.3
2016-Aug-26 20:33N 38°34' E 120°54'1312.6
2016-Aug-26 19:33N 38°36' E 120°39'1313.2
2016-Aug-26 18:33N 38°37' E 120°22'1413.8
2016-Aug-26 17:31N 38°39' E 120°03'9912.3
2016-Aug-26 09:27N 38°52' E 117°58'1011.2
2016-Aug-26 08:33N 38°57' E 117°46'1 0.3
2016-Aug-26 04:23N 38°57' E 117°45'0 0.0
2016-Aug-26 01:05N 38°57' E 117°45'0 0.0
2016-Aug-26 00:17N 38°57' E 117°45'0 0.0
2016-Aug-25 22:29N 38°57' E 117°45'0 0.0
2016-Aug-25 21:29N 38°57' E 117°45'0 0.0
2016-Aug-25 20:29N 38°57' E 117°45'0 0.0
2016-Aug-25 19:23N 38°57' E 117°45'0 0.0
2016-Aug-25 18:29N 38°57' E 117°45'0 0.0
2016-Aug-25 17:29N 38°57' E 117°45'0 0.0
2016-Aug-25 16:23N 38°57' E 117°45'0 0.0
2016-Aug-25 15:29N 38°57' E 117°45'0 0.0
2016-Aug-25 14:23N 38°57' E 117°45'0 0.0
2016-Aug-25 13:29N 38°57' E 117°45'0 0.0
2016-Aug-25 12:29N 38°57' E 117°45'0 0.0
2016-Aug-25 11:29N 38°57' E 117°45'0 0.0
2016-Aug-25 10:29N 38°57' E 117°45'0 0.0
2016-Aug-25 09:29N 38°57' E 117°45'0 0.0
2016-Aug-25 08:29N 38°57' E 117°45'0 0.0
2016-Aug-25 07:29N 38°57' E 117°45'0 0.0
2016-Aug-25 06:29N 38°57' E 117°45'0 0.0
2016-Aug-25 04:29N 38°57' E 117°45'0 0.0
2016-Aug-25 03:23N 38°57' E 117°45'0 0.1
2016-Aug-25 02:29N 38°57' E 117°45'0 0.0
2016-Aug-25 01:29N 38°57' E 117°45'0 0.0
2016-Aug-25 00:29N 38°57' E 117°45'0 0.0
2016-Aug-24 23:23N 38°57' E 117°45'0 0.1
2016-Aug-24 22:29N 38°57' E 117°45'0 0.0
2016-Aug-24 21:23N 38°57' E 117°45'0 0.0
2016-Aug-24 20:29N 38°57' E 117°45'0 0.0
2016-Aug-24 19:29N 38°57' E 117°45'0 0.0
2016-Aug-24 18:29N 38°57' E 117°45'0 0.0
2016-Aug-24 17:29N 38°57' E 117°45'0 0.0
2016-Aug-24 16:29N 38°57' E 117°45'0 0.0
2016-Aug-24 15:29N 38°57' E 117°45'0 0.0
2016-Aug-24 14:29N 38°57' E 117°45'0 0.0
2016-Aug-24 13:29N 38°57' E 117°45'0 0.0
2016-Aug-24 12:29N 38°57' E 117°45'0 0.0
2016-Aug-24 11:29N 38°57' E 117°45'0 0.0
2016-Aug-24 10:29N 38°57' E 117°45'0 0.0
2016-Aug-24 09:29N 38°57' E 117°45'0 0.0
2016-Aug-24 08:29N 38°57' E 117°45'0 0.2
2016-Aug-24 07:33N 38°57' E 117°45'8 8.3
2016-Aug-24 06:33N 38°54' E 117°55'58 3.0
2016-Aug-23 11:33N 38°48' E 119°08'1413.8
2016-Aug-23 10:32N 38°47' E 119°26'1414.3
2016-Aug-23 09:33N 38°44' E 119°44'1514.7
2016-Aug-23 08:33N 38°42' E 120°03'1715.0
2016-Aug-23 07:27N 38°40' E 120°24'1314.9
2016-Aug-23 06:33N 38°38' E 120°41'1414.2
2016-Aug-23 05:33N 38°35' E 120°58'1414.3
2016-Aug-23 04:33N 38°25' E 121°12'1413.6
2016-Aug-23 03:33N 38°12' E 121°13'1413.7
2016-Aug-23 02:33N 37°58' E 121°11'1211.9
2016-Aug-23 01:33N 37°46' E 121°09'5 0.1
2016-Aug-21 02:28N 37°43' E 121°04'4 4.1
2016-Aug-21 01:34N 37°44' E 121°08'6 1.1
2016-Aug-20 20:25N 37°50' E 121°08'0 0.0
2016-Aug-20 16:22N 37°50' E 121°08'0 0.1
2016-Aug-20 15:25N 37°50' E 121°08'0 0.0
2016-Aug-20 11:25N 37°50' E 121°08'3 3.7
2016-Aug-20 10:33N 37°53' E 121°10'9 8.6
2016-Aug-20 09:33N 37°55' E 121°21'1312.6
2016-Aug-20 08:34N 37°54' E 121°36'1413.4
2016-Aug-20 07:33N 37°52' E 121°54'  

Dump ship's entire track history